sensor_id;sensor_type;location;lat;lon;timestamp;P1;durP1;ratioP1;P2;durP2;ratioP2
51943;SDS011;37969;53.132;6.370;2022-09-01T00:01:12;4.53;;;1.13;;
51943;SDS011;37969;53.132;6.370;2022-09-01T00:03:47;4.90;;;1.33;;
51943;SDS011;37969;53.132;6.370;2022-09-01T00:06:17;1.55;;;1.30;;
51943;SDS011;37969;53.132;6.370;2022-09-01T00:08:48;3.08;;;1.20;;
51943;SDS011;37969;53.132;6.370;2022-09-01T00:11:14;1.95;;;1.10;;
51943;SDS011;37969;53.132;6.370;2022-09-01T00:13:41;5.28;;;1.25;;
51943;SDS011;37969;53.132;6.370;2022-09-01T00:16:11;3.00;;;1.00;;
51943;SDS011;37969;53.132;6.370;2022-09-01T00:18:40;1.00;;;1.00;;
51943;SDS011;37969;53.132;6.370;2022-09-01T00:21:10;2.45;;;1.02;;
51943;SDS011;37969;53.132;6.370;2022-09-01T00:23:36;2.58;;;1.20;;
51943;SDS011;37969;53.132;6.370;2022-09-01T00:26:05;2.60;;;1.10;;
51943;SDS011;37969;53.132;6.370;2022-09-01T00:28:32;0.88;;;0.88;;
51943;SDS011;37969;53.132;6.370;2022-09-01T00:31:04;2.10;;;1.00;;
51943;SDS011;37969;53.132;6.370;2022-09-01T00:33:35;2.65;;;1.30;;
51943;SDS011;37969;53.132;6.370;2022-09-01T00:36:03;1.88;;;1.40;;
51943;SDS011;37969;53.132;6.370;2022-09-01T00:38:29;2.63;;;1.33;;
51943;SDS011;37969;53.132;6.370;2022-09-01T00:40:57;2.55;;;1.17;;
51943;SDS011;37969;53.132;6.370;2022-09-01T00:43:36;3.42;;;1.20;;
51943;SDS011;37969;53.132;6.370;2022-09-01T00:46:10;1.73;;;1.00;;
51943;SDS011;37969;53.132;6.370;2022-09-01T00:48:37;1.25;;;1.00;;
51943;SDS011;37969;53.132;6.370;2022-09-01T00:51:04;1.10;;;1.00;;
51943;SDS011;37969;53.132;6.370;2022-09-01T00:53:31;1.55;;;1.05;;
51943;SDS011;37969;53.132;6.370;2022-09-01T00:55:57;1.00;;;1.00;;
51943;SDS011;37969;53.132;6.370;2022-09-01T00:58:24;1.92;;;1.10;;
51943;SDS011;37969;53.132;6.370;2022-09-01T01:00:53;1.90;;;1.10;;
51943;SDS011;37969;53.132;6.370;2022-09-01T01:03:21;2.80;;;1.02;;
51943;SDS011;37969;53.132;6.370;2022-09-01T01:05:48;1.60;;;1.10;;
51943;SDS011;37969;53.132;6.370;2022-09-01T01:08:21;2.25;;;1.25;;
51943;SDS011;37969;53.132;6.370;2022-09-01T01:10:58;3.83;;;1.23;;
51943;SDS011;37969;53.132;6.370;2022-09-01T01:13:27;1.55;;;1.10;;
51943;SDS011;37969;53.132;6.370;2022-09-01T01:15:56;1.20;;;1.10;;
51943;SDS011;37969;53.132;6.370;2022-09-01T01:18:27;6.70;;;1.25;;
51943;SDS011;37969;53.132;6.370;2022-09-01T01:20:57;2.38;;;1.40;;
51943;SDS011;37969;53.132;6.370;2022-09-01T01:23:50;1.20;;;1.10;;
51943;SDS011;37969;53.132;6.370;2022-09-01T01:26:20;0.90;;;0.90;;
51943;SDS011;37969;53.132;6.370;2022-09-01T01:28:48;1.67;;;1.25;;
51943;SDS011;37969;53.132;6.370;2022-09-01T01:31:17;5.53;;;1.13;;
51943;SDS011;37969;53.132;6.370;2022-09-01T01:33:49;1.35;;;1.27;;
51943;SDS011;37969;53.132;6.370;2022-09-01T01:36:18;2.03;;;1.20;;
51943;SDS011;37969;53.132;6.370;2022-09-01T01:38:53;1.45;;;1.35;;
51943;SDS011;37969;53.132;6.370;2022-09-01T01:41:25;1.10;;;1.05;;
51943;SDS011;37969;53.132;6.370;2022-09-01T01:43:56;1.15;;;1.05;;
51943;SDS011;37969;53.132;6.370;2022-09-01T01:46:24;1.33;;;1.23;;
51943;SDS011;37969;53.132;6.370;2022-09-01T01:48:50;1.25;;;1.15;;
51943;SDS011;37969;53.132;6.370;2022-09-01T01:51:19;1.20;;;1.10;;
51943;SDS011;37969;53.132;6.370;2022-09-01T01:53:51;1.92;;;1.50;;
51943;SDS011;37969;53.132;6.370;2022-09-01T01:56:20;2.05;;;1.15;;
51943;SDS011;37969;53.132;6.370;2022-09-01T01:58:50;1.88;;;1.38;;
51943;SDS011;37969;53.132;6.370;2022-09-01T02:01:21;2.42;;;1.02;;
51943;SDS011;37969;53.132;6.370;2022-09-01T02:03:53;2.30;;;1.20;;
51943;SDS011;37969;53.132;6.370;2022-09-01T02:06:21;1.67;;;1.35;;
51943;SDS011;37969;53.132;6.370;2022-09-01T02:08:53;2.28;;;1.27;;
51943;SDS011;37969;53.132;6.370;2022-09-01T02:11:22;1.80;;;1.30;;
51943;SDS011;37969;53.132;6.370;2022-09-01T02:16:21;2.63;;;1.20;;
51943;SDS011;37969;53.132;6.370;2022-09-01T02:18:48;4.00;;;1.45;;
51943;SDS011;37969;53.132;6.370;2022-09-01T02:21:16;1.48;;;1.35;;
51943;SDS011;37969;53.132;6.370;2022-09-01T02:23:46;1.83;;;1.47;;
51943;SDS011;37969;53.132;6.370;2022-09-01T02:26:13;2.90;;;1.83;;
51943;SDS011;37969;53.132;6.370;2022-09-01T02:28:40;1.60;;;1.50;;
51943;SDS011;37969;53.132;6.370;2022-09-01T02:31:10;1.70;;;1.60;;
51943;SDS011;37969;53.132;6.370;2022-09-01T02:33:38;1.73;;;1.60;;
51943;SDS011;37969;53.132;6.370;2022-09-01T02:36:09;2.95;;;1.70;;
51943;SDS011;37969;53.132;6.370;2022-09-01T02:38:38;2.00;;;1.80;;
51943;SDS011;37969;53.132;6.370;2022-09-01T02:41:10;1.85;;;1.75;;
51943;SDS011;37969;53.132;6.370;2022-09-01T02:43:38;2.78;;;1.58;;
51943;SDS011;37969;53.132;6.370;2022-09-01T02:46:07;3.15;;;1.90;;
51943;SDS011;37969;53.132;6.370;2022-09-01T02:48:36;1.23;;;1.17;;
51943;SDS011;37969;53.132;6.370;2022-09-01T02:51:04;1.50;;;1.40;;
51943;SDS011;37969;53.132;6.370;2022-09-01T02:53:31;2.03;;;1.50;;
51943;SDS011;37969;53.132;6.370;2022-09-01T02:55:59;1.95;;;1.60;;
51943;SDS011;37969;53.132;6.370;2022-09-01T02:58:27;1.35;;;1.25;;
51943;SDS011;37969;53.132;6.370;2022-09-01T03:00:58;2.65;;;1.40;;
51943;SDS011;37969;53.132;6.370;2022-09-01T03:03:24;2.10;;;1.48;;
51943;SDS011;37969;53.132;6.370;2022-09-01T03:05:53;2.72;;;1.60;;
51943;SDS011;37969;53.132;6.370;2022-09-01T03:08:21;4.82;;;1.83;;
51943;SDS011;37969;53.132;6.370;2022-09-01T03:10:48;1.50;;;1.40;;
51943;SDS011;37969;53.132;6.370;2022-09-01T03:13:19;1.42;;;1.33;;
51943;SDS011;37969;53.132;6.370;2022-09-01T03:15:49;1.73;;;1.15;;
51943;SDS011;37969;53.132;6.370;2022-09-01T03:18:15;1.73;;;1.40;;
51943;SDS011;37969;53.132;6.370;2022-09-01T03:20:43;1.40;;;1.30;;
51943;SDS011;37969;53.132;6.370;2022-09-01T03:23:11;3.58;;;1.52;;
51943;SDS011;37969;53.132;6.370;2022-09-01T03:25:39;1.48;;;1.38;;
51943;SDS011;37969;53.132;6.370;2022-09-01T03:28:06;2.55;;;1.27;;
51943;SDS011;37969;53.132;6.370;2022-09-01T03:30:39;1.48;;;1.17;;
51943;SDS011;37969;53.132;6.370;2022-09-01T03:33:08;1.92;;;1.30;;
51943;SDS011;37969;53.132;6.370;2022-09-01T03:35:38;2.78;;;1.35;;
51943;SDS011;37969;53.132;6.370;2022-09-01T03:38:10;8.32;;;1.95;;
51943;SDS011;37969;53.132;6.370;2022-09-01T03:40:48;1.65;;;1.38;;
51943;SDS011;37969;53.132;6.370;2022-09-01T03:43:14;1.60;;;1.50;;
51943;SDS011;37969;53.132;6.370;2022-09-01T03:45:51;2.75;;;2.05;;
51943;SDS011;37969;53.132;6.370;2022-09-01T03:48:19;4.05;;;1.48;;
51943;SDS011;37969;53.132;6.370;2022-09-01T03:50:53;1.33;;;1.30;;
51943;SDS011;37969;53.132;6.370;2022-09-01T03:53:21;11.02;;;1.48;;
51943;SDS011;37969;53.132;6.370;2022-09-01T03:55:51;1.27;;;1.20;;
51943;SDS011;37969;53.132;6.370;2022-09-01T03:58:22;2.45;;;1.40;;
51943;SDS011;37969;53.132;6.370;2022-09-01T04:00:49;1.30;;;1.17;;
51943;SDS011;37969;53.132;6.370;2022-09-01T04:03:21;3.33;;;1.25;;
51943;SDS011;37969;53.132;6.370;2022-09-01T04:05:48;4.30;;;1.60;;
51943;SDS011;37969;53.132;6.370;2022-09-01T04:08:16;2.33;;;1.55;;
51943;SDS011;37969;53.132;6.370;2022-09-01T04:10:45;2.95;;;1.60;;
51943;SDS011;37969;53.132;6.370;2022-09-01T04:13:15;4.28;;;1.58;;
51943;SDS011;37969;53.132;6.370;2022-09-01T04:15:41;2.75;;;1.83;;
51943;SDS011;37969;53.132;6.370;2022-09-01T04:18:09;1.60;;;1.50;;
51943;SDS011;37969;53.132;6.370;2022-09-01T04:20:45;3.67;;;1.35;;
51943;SDS011;37969;53.132;6.370;2022-09-01T04:23:13;1.75;;;1.65;;
51943;SDS011;37969;53.132;6.370;2022-09-01T04:25:50;2.20;;;1.42;;
51943;SDS011;37969;53.132;6.370;2022-09-01T04:28:21;3.97;;;1.77;;
51943;SDS011;37969;53.132;6.370;2022-09-01T04:30:55;1.73;;;1.45;;
51943;SDS011;37969;53.132;6.370;2022-09-01T04:33:24;2.13;;;1.92;;
51943;SDS011;37969;53.132;6.370;2022-09-01T04:35:55;1.73;;;1.63;;
51943;SDS011;37969;53.132;6.370;2022-09-01T04:38:24;2.25;;;1.65;;
51943;SDS011;37969;53.132;6.370;2022-09-01T04:40:53;1.90;;;1.80;;
51943;SDS011;37969;53.132;6.370;2022-09-01T04:43:22;4.28;;;1.70;;
51943;SDS011;37969;53.132;6.370;2022-09-01T04:45:51;1.80;;;1.70;;
51943;SDS011;37969;53.132;6.370;2022-09-01T04:48:20;1.90;;;1.80;;
51943;SDS011;37969;53.132;6.370;2022-09-01T04:50:47;3.67;;;2.20;;
51943;SDS011;37969;53.132;6.370;2022-09-01T04:53:16;3.40;;;2.10;;
51943;SDS011;37969;53.132;6.370;2022-09-01T04:55:44;2.45;;;1.90;;
51943;SDS011;37969;53.132;6.370;2022-09-01T04:58:13;3.05;;;1.90;;
51943;SDS011;37969;53.132;6.370;2022-09-01T05:00:44;4.32;;;2.03;;
51943;SDS011;37969;53.132;6.370;2022-09-01T05:03:12;2.88;;;1.90;;
51943;SDS011;37969;53.132;6.370;2022-09-01T05:05:45;2.85;;;1.98;;
51943;SDS011;37969;53.132;6.370;2022-09-01T05:08:15;4.43;;;1.85;;
51943;SDS011;37969;53.132;6.370;2022-09-01T05:10:47;3.08;;;2.10;;
51943;SDS011;37969;53.132;6.370;2022-09-01T05:13:20;1.90;;;1.80;;
51943;SDS011;37969;53.132;6.370;2022-09-01T05:15:59;3.08;;;2.03;;
51943;SDS011;37969;53.132;6.370;2022-09-01T05:18:26;2.88;;;1.90;;
51943;SDS011;37969;53.132;6.370;2022-09-01T05:20:58;1.80;;;1.70;;
51943;SDS011;37969;53.132;6.370;2022-09-01T05:23:34;2.65;;;1.75;;
51943;SDS011;37969;53.132;6.370;2022-09-01T05:26:00;1.90;;;1.80;;
51943;SDS011;37969;53.132;6.370;2022-09-01T05:28:28;2.45;;;1.80;;
51943;SDS011;37969;53.132;6.370;2022-09-01T05:30:55;5.63;;;2.50;;
51943;SDS011;37969;53.132;6.370;2022-09-01T05:33:26;2.38;;;2.17;;
51943;SDS011;37969;53.132;6.370;2022-09-01T05:35:54;3.08;;;1.70;;
51943;SDS011;37969;53.132;6.370;2022-09-01T05:38:25;4.35;;;1.90;;
51943;SDS011;37969;53.132;6.370;2022-09-01T05:40:56;3.28;;;2.03;;
51943;SDS011;37969;53.132;6.370;2022-09-01T05:43:26;2.33;;;2.13;;
51943;SDS011;37969;53.132;6.370;2022-09-01T05:45:55;3.78;;;2.20;;
51943;SDS011;37969;53.132;6.370;2022-09-01T05:48:24;4.38;;;2.17;;
51943;SDS011;37969;53.132;6.370;2022-09-01T05:50:56;2.20;;;2.00;;
51943;SDS011;37969;53.132;6.370;2022-09-01T05:53:24;5.43;;;2.45;;
51943;SDS011;37969;53.132;6.370;2022-09-01T05:55:53;6.83;;;2.37;;
51943;SDS011;37969;53.132;6.370;2022-09-01T05:58:24;2.03;;;1.92;;
51943;SDS011;37969;53.132;6.370;2022-09-01T06:00:51;4.10;;;2.00;;
51943;SDS011;37969;53.132;6.370;2022-09-01T06:03:18;2.83;;;2.40;;
51943;SDS011;37969;53.132;6.370;2022-09-01T06:05:46;3.15;;;2.67;;
51943;SDS011;37969;53.132;6.370;2022-09-01T06:08:17;3.45;;;2.50;;
51943;SDS011;37969;53.132;6.370;2022-09-01T06:10:44;4.97;;;2.65;;
51943;SDS011;37969;53.132;6.370;2022-09-01T06:13:11;3.80;;;2.83;;
51943;SDS011;37969;53.132;6.370;2022-09-01T06:15:47;2.28;;;2.08;;
51943;SDS011;37969;53.132;6.370;2022-09-01T06:18:14;3.00;;;2.60;;
51943;SDS011;37969;53.132;6.370;2022-09-01T06:20:44;4.40;;;2.37;;
51943;SDS011;37969;53.132;6.370;2022-09-01T06:23:11;5.30;;;2.53;;
51943;SDS011;37969;53.132;6.370;2022-09-01T06:25:41;3.35;;;2.17;;
51943;SDS011;37969;53.132;6.370;2022-09-01T06:28:10;2.28;;;2.08;;
51943;SDS011;37969;53.132;6.370;2022-09-01T06:30:39;2.22;;;2.03;;
51943;SDS011;37969;53.132;6.370;2022-09-01T06:33:07;4.65;;;2.20;;
51943;SDS011;37969;53.132;6.370;2022-09-01T06:35:35;2.20;;;2.00;;
51943;SDS011;37969;53.132;6.370;2022-09-01T06:38:01;2.28;;;2.08;;
51943;SDS011;37969;53.132;6.370;2022-09-01T06:40:31;5.90;;;2.03;;
51943;SDS011;37969;53.132;6.370;2022-09-01T06:42:58;2.88;;;2.40;;
51943;SDS011;37969;53.132;6.370;2022-09-01T06:45:26;4.03;;;2.08;;
51943;SDS011;37969;53.132;6.370;2022-09-01T06:47:54;2.70;;;1.92;;
51943;SDS011;37969;53.132;6.370;2022-09-01T06:50:23;4.17;;;1.73;;
51943;SDS011;37969;53.132;6.370;2022-09-01T06:52:52;2.35;;;1.85;;
51943;SDS011;37969;53.132;6.370;2022-09-01T06:55:35;1.67;;;1.48;;
51943;SDS011;37969;53.132;6.370;2022-09-01T06:58:03;5.10;;;1.80;;
51943;SDS011;37969;53.132;6.370;2022-09-01T07:00:32;1.97;;;1.70;;
51943;SDS011;37969;53.132;6.370;2022-09-01T07:03:06;5.95;;;2.03;;
51943;SDS011;37969;53.132;6.370;2022-09-01T07:05:39;2.95;;;1.40;;
51943;SDS011;37969;53.132;6.370;2022-09-01T07:08:08;2.83;;;1.70;;
51943;SDS011;37969;53.132;6.370;2022-09-01T07:10:41;4.22;;;1.63;;
51943;SDS011;37969;53.132;6.370;2022-09-01T07:13:12;1.88;;;1.77;;
51943;SDS011;37969;53.132;6.370;2022-09-01T07:15:47;3.10;;;1.70;;
51943;SDS011;37969;53.132;6.370;2022-09-01T07:18:15;3.05;;;1.73;;
51943;SDS011;37969;53.132;6.370;2022-09-01T07:20:42;2.80;;;1.60;;
51943;SDS011;37969;53.132;6.370;2022-09-01T07:23:09;2.13;;;1.70;;
51943;SDS011;37969;53.132;6.370;2022-09-01T07:25:37;3.58;;;2.08;;
51943;SDS011;37969;53.132;6.370;2022-09-01T07:28:05;3.28;;;1.67;;
51943;SDS011;37969;53.132;6.370;2022-09-01T07:30:41;5.88;;;1.90;;
51943;SDS011;37969;53.132;6.370;2022-09-01T07:33:09;3.90;;;2.20;;
51943;SDS011;37969;53.132;6.370;2022-09-01T07:35:36;6.05;;;1.60;;
51943;SDS011;37969;53.132;6.370;2022-09-01T07:38:03;5.63;;;1.60;;
51943;SDS011;37969;53.132;6.370;2022-09-01T07:40:35;3.42;;;1.58;;
51943;SDS011;37969;53.132;6.370;2022-09-01T07:43:05;2.47;;;1.45;;
51943;SDS011;37969;53.132;6.370;2022-09-01T07:45:33;1.38;;;1.20;;
51943;SDS011;37969;53.132;6.370;2022-09-01T07:50:31;1.98;;;1.17;;
51943;SDS011;37969;53.132;6.370;2022-09-01T07:52:58;1.40;;;1.30;;
51943;SDS011;37969;53.132;6.370;2022-09-01T07:55:26;2.03;;;1.30;;
51943;SDS011;37969;53.132;6.370;2022-09-01T07:57:53;2.17;;;1.45;;
51943;SDS011;37969;53.132;6.370;2022-09-01T08:00:21;1.88;;;1.33;;
51943;SDS011;37969;53.132;6.370;2022-09-01T08:02:48;3.03;;;1.67;;
51943;SDS011;37969;53.132;6.370;2022-09-01T08:05:16;2.70;;;1.40;;
51943;SDS011;37969;53.132;6.370;2022-09-01T08:07:50;1.48;;;1.20;;
51943;SDS011;37969;53.132;6.370;2022-09-01T08:10:16;3.30;;;1.50;;
51943;SDS011;37969;53.132;6.370;2022-09-01T08:12:42;3.17;;;1.85;;
51943;SDS011;37969;53.132;6.370;2022-09-01T08:15:09;4.85;;;1.58;;
51943;SDS011;37969;53.132;6.370;2022-09-01T08:17:38;4.53;;;1.48;;
51943;SDS011;37969;53.132;6.370;2022-09-01T08:20:05;4.78;;;1.50;;
51943;SDS011;37969;53.132;6.370;2022-09-01T08:22:34;1.80;;;1.70;;
51943;SDS011;37969;53.132;6.370;2022-09-01T08:25:02;2.90;;;1.52;;
51943;SDS011;37969;53.132;6.370;2022-09-01T08:27:28;4.70;;;1.52;;
51943;SDS011;37969;53.132;6.370;2022-09-01T08:29:57;3.10;;;1.45;;
51943;SDS011;37969;53.132;6.370;2022-09-01T08:32:24;4.70;;;1.77;;
51943;SDS011;37969;53.132;6.370;2022-09-01T08:34:51;5.13;;;1.60;;
51943;SDS011;37969;53.132;6.370;2022-09-01T08:37:21;3.17;;;1.30;;
51943;SDS011;37969;53.132;6.370;2022-09-01T08:39:49;3.50;;;1.27;;
51943;SDS011;37969;53.132;6.370;2022-09-01T08:42:27;1.70;;;1.20;;
51943;SDS011;37969;53.132;6.370;2022-09-01T08:47:33;2.38;;;1.17;;
51943;SDS011;37969;53.132;6.370;2022-09-01T08:50:00;5.20;;;1.17;;
51943;SDS011;37969;53.132;6.370;2022-09-01T08:52:33;1.42;;;1.27;;
51943;SDS011;37969;53.132;6.370;2022-09-01T08:57:41;2.33;;;1.30;;
51943;SDS011;37969;53.132;6.370;2022-09-01T09:00:09;2.15;;;1.15;;
51943;SDS011;37969;53.132;6.370;2022-09-01T09:02:42;5.03;;;1.40;;
51943;SDS011;37969;53.132;6.370;2022-09-01T09:05:22;5.32;;;1.10;;
51943;SDS011;37969;53.132;6.370;2022-09-01T09:08:07;3.95;;;1.52;;
51943;SDS011;37969;53.132;6.370;2022-09-01T09:10:53;6.78;;;1.30;;
51943;SDS011;37969;53.132;6.370;2022-09-01T09:16:07;2.63;;;1.05;;
51943;SDS011;37969;53.132;6.370;2022-09-01T09:18:55;1.50;;;1.00;;
51943;SDS011;37969;53.132;6.370;2022-09-01T09:21:28;3.22;;;1.23;;
51943;SDS011;37969;53.132;6.370;2022-09-01T09:23:59;3.80;;;1.13;;
51943;SDS011;37969;53.132;6.370;2022-09-01T09:26:33;1.00;;;1.00;;
51943;SDS011;37969;53.132;6.370;2022-09-01T09:29:00;2.08;;;1.13;;
51943;SDS011;37969;53.132;6.370;2022-09-01T09:31:27;5.57;;;0.93;;
51943;SDS011;37969;53.132;6.370;2022-09-01T09:33:54;5.55;;;1.00;;
51943;SDS011;37969;53.132;6.370;2022-09-01T09:36:28;3.65;;;1.02;;
51943;SDS011;37969;53.132;6.370;2022-09-01T09:39:03;1.27;;;0.70;;
51943;SDS011;37969;53.132;6.370;2022-09-01T09:41:30;3.78;;;0.75;;
51943;SDS011;37969;53.132;6.370;2022-09-01T09:44:03;4.85;;;0.85;;
51943;SDS011;37969;53.132;6.370;2022-09-01T09:46:34;1.77;;;0.88;;
51943;SDS011;37969;53.132;6.370;2022-09-01T09:49:06;2.85;;;0.90;;
51943;SDS011;37969;53.132;6.370;2022-09-01T09:51:37;1.77;;;1.15;;
51943;SDS011;37969;53.132;6.370;2022-09-01T09:54:10;3.35;;;0.90;;
51943;SDS011;37969;53.132;6.370;2022-09-01T09:56:37;3.35;;;1.00;;
51943;SDS011;37969;53.132;6.370;2022-09-01T09:59:17;1.23;;;0.80;;
51943;SDS011;37969;53.132;6.370;2022-09-01T10:01:44;3.00;;;1.00;;
51943;SDS011;37969;53.132;6.370;2022-09-01T10:04:32;2.92;;;0.93;;
51943;SDS011;37969;53.132;6.370;2022-09-01T10:07:00;3.15;;;1.10;;
51943;SDS011;37969;53.132;6.370;2022-09-01T10:11:54;3.83;;;1.00;;
51943;SDS011;37969;53.132;6.370;2022-09-01T10:14:24;4.75;;;1.00;;
51943;SDS011;37969;53.132;6.370;2022-09-01T10:16:57;5.90;;;1.15;;
51943;SDS011;37969;53.132;6.370;2022-09-01T10:19:26;6.00;;;1.30;;
51943;SDS011;37969;53.132;6.370;2022-09-01T10:21:55;3.22;;;1.00;;
51943;SDS011;37969;53.132;6.370;2022-09-01T10:24:28;3.33;;;0.80;;
51943;SDS011;37969;53.132;6.370;2022-09-01T10:26:56;3.75;;;0.90;;
51943;SDS011;37969;53.132;6.370;2022-09-01T10:29:27;3.78;;;1.30;;
51943;SDS011;37969;53.132;6.370;2022-09-01T10:31:57;3.33;;;1.00;;
51943;SDS011;37969;53.132;6.370;2022-09-01T10:34:25;4.82;;;1.05;;
51943;SDS011;37969;53.132;6.370;2022-09-01T10:36:52;2.90;;;0.90;;
51943;SDS011;37969;53.132;6.370;2022-09-01T10:39:19;1.25;;;0.82;;
51943;SDS011;37969;53.132;6.370;2022-09-01T10:41:49;2.47;;;1.10;;
51943;SDS011;37969;53.132;6.370;2022-09-01T10:46:47;1.80;;;0.70;;
51943;SDS011;37969;53.132;6.370;2022-09-01T10:49:20;1.98;;;0.80;;
51943;SDS011;37969;53.132;6.370;2022-09-01T10:51:50;1.48;;;0.68;;
51943;SDS011;37969;53.132;6.370;2022-09-01T10:57:07;1.30;;;0.70;;
51943;SDS011;37969;53.132;6.370;2022-09-01T10:59:34;1.08;;;0.65;;
51943;SDS011;37969;53.132;6.370;2022-09-01T11:02:08;4.00;;;0.63;;
51943;SDS011;37969;53.132;6.370;2022-09-01T11:05:08;0.95;;;0.60;;
51943;SDS011;37969;53.132;6.370;2022-09-01T11:12:56;4.97;;;1.05;;
51943;SDS011;37969;53.132;6.370;2022-09-01T11:17:55;8.23;;;1.08;;
51943;SDS011;37969;53.132;6.370;2022-09-01T11:20:25;9.65;;;1.23;;
51943;SDS011;37969;53.132;6.370;2022-09-01T11:22:57;2.30;;;0.80;;
51943;SDS011;37969;53.132;6.370;2022-09-01T11:30:32;16.42;;;1.40;;
51943;SDS011;37969;53.132;6.370;2022-09-01T11:35:39;3.42;;;0.98;;
51943;SDS011;37969;53.132;6.370;2022-09-01T11:38:11;3.42;;;0.90;;
51943;SDS011;37969;53.132;6.370;2022-09-01T11:40:41;3.28;;;0.65;;
51943;SDS011;37969;53.132;6.370;2022-09-01T11:43:10;1.88;;;0.77;;
51943;SDS011;37969;53.132;6.370;2022-09-01T11:45:43;7.60;;;1.17;;
51943;SDS011;37969;53.132;6.370;2022-09-01T11:48:19;6.10;;;1.13;;
51943;SDS011;37969;53.132;6.370;2022-09-01T11:50:45;2.78;;;0.70;;
51943;SDS011;37969;53.132;6.370;2022-09-01T11:53:22;3.70;;;0.70;;
51943;SDS011;37969;53.132;6.370;2022-09-01T11:55:50;3.60;;;0.70;;
51943;SDS011;37969;53.132;6.370;2022-09-01T12:00:52;1.55;;;0.85;;
51943;SDS011;37969;53.132;6.370;2022-09-01T12:05:45;10.25;;;1.20;;
51943;SDS011;37969;53.132;6.370;2022-09-01T12:08:16;8.45;;;0.98;;
51943;SDS011;37969;53.132;6.370;2022-09-01T12:10:44;9.75;;;1.35;;
51943;SDS011;37969;53.132;6.370;2022-09-01T12:13:16;3.30;;;0.75;;
51943;SDS011;37969;53.132;6.370;2022-09-01T12:15:52;6.78;;;1.00;;
51943;SDS011;37969;53.132;6.370;2022-09-01T12:18:23;17.85;;;1.80;;
51943;SDS011;37969;53.132;6.370;2022-09-01T12:20:51;3.23;;;1.10;;
51943;SDS011;37969;53.132;6.370;2022-09-01T12:23:24;1.95;;;1.10;;
51943;SDS011;37969;53.132;6.370;2022-09-01T12:25:54;2.65;;;0.70;;
51943;SDS011;37969;53.132;6.370;2022-09-01T12:28:27;1.05;;;0.70;;
51943;SDS011;37969;53.132;6.370;2022-09-01T12:30:56;5.22;;;1.23;;
51943;SDS011;37969;53.132;6.370;2022-09-01T12:33:25;1.65;;;0.75;;
51943;SDS011;37969;53.132;6.370;2022-09-01T12:36:14;1.80;;;0.70;;
51943;SDS011;37969;53.132;6.370;2022-09-01T12:38:46;8.43;;;0.90;;
51943;SDS011;37969;53.132;6.370;2022-09-01T12:41:22;2.30;;;0.90;;
51943;SDS011;37969;53.132;6.370;2022-09-01T12:43:50;4.32;;;0.80;;
51943;SDS011;37969;53.132;6.370;2022-09-01T12:46:40;1.90;;;0.70;;
51943;SDS011;37969;53.132;6.370;2022-09-01T12:49:17;3.27;;;0.80;;
51943;SDS011;37969;53.132;6.370;2022-09-01T12:51:44;4.60;;;0.75;;
51943;SDS011;37969;53.132;6.370;2022-09-01T12:54:15;2.92;;;0.65;;
51943;SDS011;37969;53.132;6.370;2022-09-01T12:56:50;3.78;;;1.02;;
51943;SDS011;37969;53.132;6.370;2022-09-01T12:59:20;4.65;;;0.93;;
51943;SDS011;37969;53.132;6.370;2022-09-01T13:01:49;2.92;;;0.80;;
51943;SDS011;37969;53.132;6.370;2022-09-01T13:06:49;4.20;;;0.70;;
51943;SDS011;37969;53.132;6.370;2022-09-01T13:09:16;6.25;;;0.85;;
51943;SDS011;37969;53.132;6.370;2022-09-01T13:11:44;2.15;;;0.70;;
51943;SDS011;37969;53.132;6.370;2022-09-01T13:14:11;1.73;;;0.65;;
51943;SDS011;37969;53.132;6.370;2022-09-01T13:16:38;2.88;;;1.00;;
51943;SDS011;37969;53.132;6.370;2022-09-01T13:19:07;0.70;;;0.68;;
51943;SDS011;37969;53.132;6.370;2022-09-01T13:21:34;1.75;;;0.73;;
51943;SDS011;37969;53.132;6.370;2022-09-01T13:24:02;1.00;;;0.80;;
51943;SDS011;37969;53.132;6.370;2022-09-01T13:26:29;2.83;;;0.80;;
51943;SDS011;37969;53.132;6.370;2022-09-01T13:28:56;3.72;;;0.70;;
51943;SDS011;37969;53.132;6.370;2022-09-01T13:31:28;1.60;;;0.55;;
51943;SDS011;37969;53.132;6.370;2022-09-01T13:33:55;2.78;;;0.80;;
51943;SDS011;37969;53.132;6.370;2022-09-01T13:36:22;1.20;;;0.82;;
51943;SDS011;37969;53.132;6.370;2022-09-01T13:38:50;0.65;;;0.60;;
51943;SDS011;37969;53.132;6.370;2022-09-01T13:41:17;0.93;;;0.68;;
51943;SDS011;37969;53.132;6.370;2022-09-01T13:43:44;6.93;;;0.90;;
51943;SDS011;37969;53.132;6.370;2022-09-01T13:46:11;2.60;;;0.60;;
51943;SDS011;37969;53.132;6.370;2022-09-01T13:48:37;5.95;;;1.15;;
51943;SDS011;37969;53.132;6.370;2022-09-01T13:51:04;7.32;;;0.70;;
51943;SDS011;37969;53.132;6.370;2022-09-01T13:53:32;4.13;;;0.70;;
51943;SDS011;37969;53.132;6.370;2022-09-01T13:56:01;3.60;;;0.90;;
51943;SDS011;37969;53.132;6.370;2022-09-01T13:58:27;3.75;;;0.85;;
51943;SDS011;37969;53.132;6.370;2022-09-01T14:00:55;2.58;;;0.75;;
51943;SDS011;37969;53.132;6.370;2022-09-01T14:03:23;1.45;;;0.60;;
51943;SDS011;37969;53.132;6.370;2022-09-01T14:05:50;2.67;;;0.70;;
51943;SDS011;37969;53.132;6.370;2022-09-01T14:08:19;0.80;;;0.70;;
51943;SDS011;37969;53.132;6.370;2022-09-01T14:10:50;1.33;;;0.77;;
51943;SDS011;37969;53.132;6.370;2022-09-01T14:13:19;4.40;;;0.82;;
51943;SDS011;37969;53.132;6.370;2022-09-01T14:15:46;2.97;;;0.80;;
51943;SDS011;37969;53.132;6.370;2022-09-01T14:18:13;2.42;;;0.50;;
51943;SDS011;37969;53.132;6.370;2022-09-01T14:21:00;2.55;;;0.70;;
51943;SDS011;37969;53.132;6.370;2022-09-01T14:23:31;4.32;;;0.80;;
51943;SDS011;37969;53.132;6.370;2022-09-01T14:25:57;2.33;;;0.68;;
51943;SDS011;37969;53.132;6.370;2022-09-01T14:28:24;2.67;;;0.68;;
51943;SDS011;37969;53.132;6.370;2022-09-01T14:30:54;1.52;;;0.90;;
51943;SDS011;37969;53.132;6.370;2022-09-01T14:33:21;5.82;;;0.90;;
51943;SDS011;37969;53.132;6.370;2022-09-01T14:35:48;3.60;;;0.77;;
51943;SDS011;37969;53.132;6.370;2022-09-01T14:38:15;1.58;;;0.82;;
51943;SDS011;37969;53.132;6.370;2022-09-01T14:40:42;1.70;;;0.60;;
51943;SDS011;37969;53.132;6.370;2022-09-01T14:43:09;1.08;;;0.68;;
51943;SDS011;37969;53.132;6.370;2022-09-01T14:45:38;3.45;;;0.70;;
51943;SDS011;37969;53.132;6.370;2022-09-01T14:48:05;2.50;;;0.65;;
51943;SDS011;37969;53.132;6.370;2022-09-01T14:50:33;2.77;;;0.70;;
51943;SDS011;37969;53.132;6.370;2022-09-01T14:53:04;0.60;;;0.60;;
51943;SDS011;37969;53.132;6.370;2022-09-01T14:55:31;1.38;;;0.50;;
51943;SDS011;37969;53.132;6.370;2022-09-01T14:57:58;3.45;;;0.68;;
51943;SDS011;37969;53.132;6.370;2022-09-01T15:00:26;0.75;;;0.57;;
51943;SDS011;37969;53.132;6.370;2022-09-01T15:02:53;3.58;;;0.60;;
51943;SDS011;37969;53.132;6.370;2022-09-01T15:05:19;1.13;;;0.80;;
51943;SDS011;37969;53.132;6.370;2022-09-01T15:07:46;3.20;;;0.55;;
51943;SDS011;37969;53.132;6.370;2022-09-01T15:10:14;2.08;;;0.50;;
51943;SDS011;37969;53.132;6.370;2022-09-01T15:12:40;2.17;;;0.63;;
51943;SDS011;37969;53.132;6.370;2022-09-01T15:15:07;0.80;;;0.60;;
51943;SDS011;37969;53.132;6.370;2022-09-01T15:17:33;1.58;;;0.80;;
51943;SDS011;37969;53.132;6.370;2022-09-01T15:20:00;4.38;;;0.68;;
51943;SDS011;37969;53.132;6.370;2022-09-01T15:22:46;3.00;;;0.68;;
51943;SDS011;37969;53.132;6.370;2022-09-01T15:27:44;1.02;;;0.55;;
51943;SDS011;37969;53.132;6.370;2022-09-01T15:30:13;2.10;;;0.63;;
51943;SDS011;37969;53.132;6.370;2022-09-01T15:32:47;1.45;;;0.60;;
51943;SDS011;37969;53.132;6.370;2022-09-01T15:35:14;1.15;;;0.70;;
51943;SDS011;37969;53.132;6.370;2022-09-01T15:37:41;4.88;;;0.50;;
51943;SDS011;37969;53.132;6.370;2022-09-01T15:40:10;2.33;;;0.52;;
51943;SDS011;37969;53.132;6.370;2022-09-01T15:42:38;2.92;;;0.50;;
51943;SDS011;37969;53.132;6.370;2022-09-01T15:45:11;2.20;;;0.60;;
51943;SDS011;37969;53.132;6.370;2022-09-01T15:47:39;1.02;;;0.50;;
51943;SDS011;37969;53.132;6.370;2022-09-01T15:52:38;3.95;;;0.55;;